Time;durP1;ratioP1;P1;durP2;ratioP2;P2;SDS_P1;SDS_P2;PMS_P1;PMS_P2;Temp;Humidity;BMP_temperature;BMP_pressure;BME280_temperature;BME280_humidity;BME280_pressure;Samples;Min_cycle;Max_cycle;Signal;HPM_P1;HPM_P2
2022/06/16 00:02:01;;;;;;;4.87;2.30;;;24.50;50.80;;;;;;5139126;27;20221;-94
2022/06/16 00:04:28;;;;;;;4.50;2.00;;;24.50;50.90;;;;;;5137184;27;20173;-94
2022/06/16 00:06:55;;;;;;;2.43;2.20;;;24.50;50.90;;;;;;5141873;27;20250;-94
2022/06/16 00:09:25;;;;;;;2.37;2.00;;;24.50;50.90;;;;;;5142818;27;20167;-94
2022/06/16 00:12:19;;;;;;;4.33;2.07;;;24.40;50.90;;;;;;5143330;27;20157;-95
2022/06/16 00:14:45;;;;;;;2.83;2.00;;;24.50;50.90;;;;;;5142853;27;20170;-94
2022/06/16 00:17:10;;;;;;;2.73;2.00;;;24.50;50.90;;;;;;5141004;27;20176;-94
2022/06/16 00:19:36;;;;;;;3.83;2.30;;;24.50;50.80;;;;;;5140249;27;20168;-94
2022/06/16 00:22:07;;;;;;;4.33;2.23;;;24.50;50.70;;;;;;5141760;27;20217;-95
2022/06/16 00:24:33;;;;;;;4.30;2.60;;;24.40;50.70;;;;;;5142638;27;20188;-94
2022/06/16 00:26:59;;;;;;;4.03;2.20;;;24.40;50.80;;;;;;5137277;27;20311;-94
2022/06/16 00:29:25;;;;;;;3.93;2.17;;;24.40;50.80;;;;;;5135203;27;20169;-94
2022/06/16 00:31:53;;;;;;;5.70;2.00;;;24.40;50.70;;;;;;5136551;27;20203;-94
2022/06/16 00:34:19;;;;;;;2.23;1.87;;;24.40;50.60;;;;;;5139930;27;20189;-94
2022/06/16 00:36:45;;;;;;;2.73;1.93;;;24.40;50.60;;;;;;5140922;27;20174;-95
2022/06/16 00:39:11;;;;;;;4.17;2.13;;;24.40;50.50;;;;;;5135637;27;20185;-94
2022/06/16 00:41:44;;;;;;;4.60;2.00;;;24.30;50.30;;;;;;5139108;27;20166;-94
2022/06/16 00:44:30;;;;;;;3.47;2.10;;;24.20;50.30;;;;;;5143440;27;20179;-95
2022/06/16 00:46:56;;;;;;;2.57;1.83;;;24.20;50.90;;;;;;5142723;27;20166;-94
2022/06/16 00:49:37;;;;;;;3.43;1.97;;;24.20;50.40;;;;;;5142927;27;20233;-94
2022/06/16 00:52:11;;;;;;;2.83;1.63;;;24.10;50.10;;;;;;5142933;27;20169;-95
2022/06/16 00:54:42;;;;;;;2.97;1.80;;;24.20;50.30;;;;;;5141928;27;20225;-95
2022/06/16 00:57:22;;;;;;;4.77;2.43;;;24.20;50.30;;;;;;5142946;27;20166;-95
2022/06/16 00:59:48;;;;;;;3.63;1.97;;;24.20;49.90;;;;;;5142110;27;20387;-94
2022/06/16 01:02:15;;;;;;;2.90;2.00;;;24.10;49.90;;;;;;5141930;27;20192;-94
2022/06/16 01:04:52;;;;;;;7.23;2.50;;;24.00;50.30;;;;;;5142437;27;20166;-95
2022/06/16 01:07:54;;;;;;;3.90;2.40;;;24.00;50.10;;;;;;5143157;27;20170;-94
2022/06/16 01:10:20;;;;;;;4.40;2.03;;;24.00;50.30;;;;;;5139376;27;20177;-93
2022/06/16 01:16:21;;;;;;;4.87;2.33;;;24.00;50.20;;;;;;5156761;27;20165;-94
2022/06/16 01:18:59;;;;;;;4.13;2.10;;;23.90;49.90;;;;;;5138195;27;20165;-94
2022/06/16 01:22:04;;;;;;;4.53;2.03;;;23.90;49.70;;;;;;5140312;27;20170;-94
2022/06/16 01:25:08;;;;;;;3.73;2.10;;;23.80;50.00;;;;;;5138467;27;20205;-94
2022/06/16 01:27:41;;;;;;;2.47;2.07;;;23.70;49.80;;;;;;5121262;27;20198;-95
2022/06/16 01:30:17;;;;;;;4.00;1.97;;;23.70;49.40;;;;;;5141863;27;20166;-94
2022/06/16 01:32:45;;;;;;;3.40;1.83;;;23.70;49.90;;;;;;5139284;27;20185;-94
2022/06/16 01:35:30;;;;;;;3.23;1.77;;;23.70;50.10;;;;;;5141245;27;20153;-95
2022/06/16 01:38:01;;;;;;;1.93;1.57;;;23.70;50.20;;;;;;5140409;27;20173;-94
2022/06/16 01:40:38;;;;;;;5.67;2.63;;;23.70;50.10;;;;;;5139018;28;20230;-94
2022/06/16 01:43:08;;;;;;;3.23;2.30;;;23.70;49.10;;;;;;5137246;27;20204;-94
2022/06/16 01:45:50;;;;;;;2.30;1.70;;;23.60;49.30;;;;;;5141178;27;20173;-94
2022/06/16 01:48:34;;;;;;;3.63;1.83;;;23.60;50.00;;;;;;5139924;27;20200;-95
2022/06/16 01:51:12;;;;;;;2.87;1.90;;;23.60;49.90;;;;;;5137679;28;20329;-94
2022/06/16 01:53:55;;;;;;;3.50;1.70;;;23.60;49.90;;;;;;5134185;27;20172;-94
2022/06/16 01:56:29;;;;;;;3.67;2.10;;;23.60;49.80;;;;;;5133868;28;20188;-94
2022/06/16 01:59:00;;;;;;;4.53;1.87;;;23.60;49.50;;;;;;5132657;28;20241;-94
2022/06/16 02:01:30;;;;;;;4.40;1.90;;;23.60;49.70;;;;;;5131942;28;20173;-94
2022/06/16 02:04:02;;;;;;;4.37;2.47;;;23.50;49.10;;;;;;5132760;28;20173;-94
2022/06/16 02:06:36;;;;;;;3.30;1.93;;;23.30;49.10;;;;;;5132743;28;20166;-94
2022/06/16 02:09:09;;;;;;;3.03;2.03;;;23.30;49.40;;;;;;5134360;28;20161;-94
2022/06/16 02:11:36;;;;;;;4.27;1.90;;;23.30;49.40;;;;;;5135150;28;20180;-94
2022/06/16 02:14:32;;;;;;;3.83;2.10;;;23.30;50.00;;;;;;5132268;28;20187;-94
2022/06/16 02:16:59;;;;;;;3.83;2.00;;;23.30;49.40;;;;;;5133145;28;20180;-94
2022/06/16 02:19:25;;;;;;;5.37;2.10;;;23.20;49.80;;;;;;5135631;28;20253;-95
2022/06/16 02:21:53;;;;;;;3.23;1.90;;;23.30;50.00;;;;;;5137298;27;20213;-94
2022/06/16 02:25:03;;;;;;;2.73;2.07;;;23.30;49.80;;;;;;5141700;28;20158;-95
2022/06/16 02:27:28;;;;;;;3.27;2.20;;;23.30;50.00;;;;;;5141509;27;20165;-94
2022/06/16 02:29:54;;;;;;;2.17;1.67;;;23.20;49.80;;;;;;5141890;28;20165;-95
2022/06/16 02:33:19;;;;;;;3.33;1.90;;;23.20;50.00;;;;;;5141775;27;20174;-94
2022/06/16 02:36:20;;;;;;;4.30;2.20;;;23.20;50.00;;;;;;5140414;27;20193;-96
2022/06/16 02:39:05;;;;;;;4.80;2.00;;;23.10;50.00;;;;;;5141772;27;20157;-94
2022/06/16 02:42:03;;;;;;;5.43;2.00;;;23.20;50.00;;;;;;5141982;28;20203;-95
2022/06/16 02:44:36;;;;;;;3.67;2.67;;;23.20;49.90;;;;;;5141492;28;20198;-96
2022/06/16 02:47:17;;;;;;;2.57;2.00;;;23.10;49.50;;;;;;5141791;27;20264;-95
2022/06/16 02:50:25;;;;;;;3.33;1.77;;;23.00;50.00;;;;;;5141903;27;20181;-95
2022/06/16 02:53:14;;;;;;;3.77;2.00;;;22.90;50.20;;;;;;5130355;28;20211;-94
2022/06/16 02:55:49;;;;;;;6.07;2.80;;;22.90;50.00;;;;;;5141446;27;20174;-95
2022/06/16 02:58:31;;;;;;;5.90;2.80;;;22.80;49.80;;;;;;5143489;27;20178;-94
2022/06/16 03:01:01;;;;;;;4.43;2.07;;;22.80;50.10;;;;;;5143527;27;20218;-94
2022/06/16 03:03:29;;;;;;;4.73;2.80;;;22.70;50.30;;;;;;5143013;27;20223;-95
2022/06/16 03:05:57;;;;;;;5.53;2.60;;;22.70;50.40;;;;;;5144134;27;20165;-94
2022/06/16 03:08:26;;;;;;;5.00;2.80;;;22.60;50.50;;;;;;5143092;27;20173;-95
2022/06/16 03:10:52;;;;;;;4.63;2.80;;;22.50;50.60;;;;;;5142737;27;20241;-94
2022/06/16 03:13:24;;;;;;;2.10;1.87;;;22.50;50.80;;;;;;5141459;27;20170;-95
2022/06/16 03:15:51;;;;;;;4.93;2.77;;;22.50;50.90;;;;;;5141134;27;20198;-94
2022/06/16 03:18:27;;;;;;;4.10;2.70;;;22.40;50.90;;;;;;5141936;27;20173;-94
2022/06/16 03:20:53;;;;;;;5.27;2.70;;;22.40;51.00;;;;;;5141928;27;20166;-94
2022/06/16 03:23:20;;;;;;;4.13;2.90;;;22.30;51.10;;;;;;5140322;27;20223;-95
2022/06/16 03:25:46;;;;;;;6.23;3.03;;;22.30;51.20;;;;;;5160031;27;20161;-94
2022/06/16 03:28:13;;;;;;;6.70;3.43;;;22.20;51.40;;;;;;5141821;27;20204;-94
2022/06/16 03:30:40;;;;;;;4.77;2.97;;;22.20;51.50;;;;;;5141771;27;20208;-94
2022/06/16 03:33:08;;;;;;;5.10;2.73;;;22.10;51.50;;;;;;5141277;27;20178;-94
2022/06/16 03:35:35;;;;;;;7.00;3.10;;;22.10;51.70;;;;;;5141639;27;20173;-94
2022/06/16 03:38:20;;;;;;;5.33;2.80;;;22.00;51.80;;;;;;5141815;27;20177;-95
2022/06/16 03:40:46;;;;;;;4.17;2.67;;;22.00;52.00;;;;;;5141346;27;20168;-94
2022/06/16 03:43:12;;;;;;;6.83;2.80;;;22.00;52.00;;;;;;5141308;27;20238;-94
2022/06/16 03:45:51;;;;;;;3.87;2.20;;;22.00;52.10;;;;;;5141003;27;20165;-95
2022/06/16 03:48:17;;;;;;;5.70;2.73;;;22.00;52.20;;;;;;5141255;27;20181;-94
2022/06/16 03:50:42;;;;;;;3.77;2.53;;;22.00;52.30;;;;;;5140169;27;20168;-95
2022/06/16 03:53:08;;;;;;;5.20;2.60;;;22.00;52.30;;;;;;5140783;27;20233;-94
2022/06/16 03:55:34;;;;;;;4.60;3.10;;;21.90;52.30;;;;;;5140231;27;20171;-94
2022/06/16 03:58:00;;;;;;;3.43;2.50;;;21.90;52.40;;;;;;5139329;27;20169;-94
2022/06/16 04:00:26;;;;;;;4.40;3.10;;;21.90;52.50;;;;;;5140309;27;20183;-95
2022/06/16 04:05:38;;;;;;;5.67;3.10;;;21.80;52.60;;;;;;5150492;27;20230;-94
2022/06/16 04:08:04;;;;;;;4.37;2.37;;;21.80;52.70;;;;;;5132489;27;20204;-93
2022/06/16 04:10:30;;;;;;;5.00;3.00;;;21.80;52.70;;;;;;5133406;27;20240;-94
2022/06/16 04:12:56;;;;;;;5.80;3.27;;;21.80;52.80;;;;;;5134091;27;20173;-94
2022/06/16 04:15:31;;;;;;;6.00;2.90;;;21.80;52.70;;;;;;5133863;27;20173;-94
2022/06/16 04:17:57;;;;;;;3.87;2.20;;;21.80;52.70;;;;;;5133080;27;20175;-94
2022/06/16 04:20:24;;;;;;;4.00;2.70;;;21.80;52.70;;;;;;5131379;27;20447;-94
2022/06/16 04:22:51;;;;;;;4.17;2.60;;;21.80;52.70;;;;;;5133360;27;20209;-94
2022/06/16 04:25:20;;;;;;;3.10;2.27;;;21.80;52.80;;;;;;5133148;27;20323;-93
2022/06/16 04:27:46;;;;;;;3.83;2.73;;;21.80;52.80;;;;;;5133047;27;20683;-94
2022/06/16 04:30:14;;;;;;;2.80;2.30;;;21.80;52.70;;;;;;5133348;27;20169;-94
2022/06/16 04:32:43;;;;;;;4.23;2.13;;;21.80;52.70;;;;;;5134046;27;20179;-94
2022/06/16 04:35:09;;;;;;;4.27;2.33;;;21.80;52.70;;;;;;5133671;27;20180;-94
2022/06/16 04:37:35;;;;;;;2.40;1.90;;;21.90;52.80;;;;;;5142526;27;20187;-95
2022/06/16 04:40:01;;;;;;;3.63;2.67;;;21.80;52.60;;;;;;5143161;27;20201;-95
2022/06/16 04:43:21;;;;;;;5.17;3.07;;;21.80;52.70;;;;;;5143321;27;20207;-94
2022/06/16 04:45:47;;;;;;;3.43;2.10;;;21.80;52.70;;;;;;5143349;27;20187;-94
2022/06/16 04:48:12;;;;;;;4.93;3.23;;;21.80;52.80;;;;;;5143373;27;20162;-95
2022/06/16 04:50:38;;;;;;;4.50;3.03;;;21.90;52.70;;;;;;5143499;27;20172;-94
2022/06/16 04:53:47;;;;;;;5.57;2.63;;;21.90;52.20;;;;;;5143333;27;20161;-95
2022/06/16 04:56:12;;;;;;;4.83;2.53;;;21.90;52.50;;;;;;5143337;27;20182;-95
2022/06/16 04:58:38;;;;;;;4.60;2.73;;;22.00;52.50;;;;;;5143358;27;20149;-94
2022/06/16 05:01:07;;;;;;;5.17;2.97;;;21.90;52.40;;;;;;5142823;27;20245;-95
2022/06/16 05:13:40;;;;;;;3.47;2.20;;;22.20;51.90;;;;;;5161008;27;20160;-93
2022/06/16 05:16:07;;;;;;;2.77;2.00;;;22.20;52.10;;;;;;5143422;27;20150;-94
2022/06/16 05:18:32;;;;;;;2.80;1.97;;;22.30;52.10;;;;;;5143126;27;20173;-94
2022/06/16 05:21:05;;;;;;;2.30;2.10;;;22.40;52.10;;;;;;5143049;27;20222;-93
2022/06/16 05:23:32;;;;;;;2.30;1.97;;;22.50;52.00;;;;;;5143329;27;20265;-95
2022/06/16 05:25:57;;;;;;;3.33;2.00;;;22.50;51.90;;;;;;5143125;27;20153;-92
2022/06/16 05:28:23;;;;;;;2.90;1.60;;;22.60;51.80;;;;;;5143086;27;20302;-94
2022/06/16 05:30:49;;;;;;;3.53;1.90;;;22.70;51.60;;;;;;5143247;27;20162;-94
2022/06/16 05:33:15;;;;;;;3.07;1.90;;;22.80;51.60;;;;;;5143044;27;20185;-94
2022/06/16 05:35:41;;;;;;;3.07;2.33;;;22.80;51.50;;;;;;5143069;27;20197;-91
2022/06/16 05:38:06;;;;;;;2.10;1.90;;;22.90;51.20;;;;;;5142984;27;20157;-94
2022/06/16 05:40:32;;;;;;;2.30;1.67;;;22.90;50.90;;;;;;5142941;27;20161;-94
2022/06/16 05:42:59;;;;;;;5.27;2.53;;;23.00;51.10;;;;;;5140554;27;20220;-94
2022/06/16 05:45:24;;;;;;;3.83;2.20;;;23.10;51.00;;;;;;5137749;27;20237;-94
2022/06/16 05:47:50;;;;;;;3.87;2.00;;;23.20;50.80;;;;;;5134397;27;20177;-94
2022/06/16 05:50:17;;;;;;;4.33;1.90;;;23.30;50.90;;;;;;5134507;28;20182;-94
2022/06/16 05:52:44;;;;;;;2.20;2.00;;;23.40;50.70;;;;;;5137166;27;20170;-94
2022/06/16 05:55:14;;;;;;;3.17;1.83;;;23.40;50.50;;;;;;5136203;27;20183;-94
2022/06/16 05:57:41;;;;;;;3.63;1.73;;;23.50;50.30;;;;;;5136000;28;20154;-95
2022/06/16 06:00:12;;;;;;;2.53;1.80;;;23.60;50.20;;;;;;5138489;27;20163;-94
2022/06/16 06:02:37;;;;;;;1.93;1.37;;;23.70;50.30;;;;;;5140616;28;20196;-96
2022/06/16 06:05:04;;;;;;;3.73;2.73;;;23.80;50.20;;;;;;5137446;28;20245;-94
2022/06/16 06:16:25;;;;;;;2.57;1.73;;;23.90;49.50;;;;;;5134765;28;20171;-94
2022/06/16 06:18:38;;;;;;;2.17;1.50;;;24.90;48.10;;;;;;5152035;28;20271;-94
2022/06/16 06:21:04;;;;;;;2.13;1.60;;;25.30;47.90;;;;;;5131448;28;20169;-94
2022/06/16 06:23:30;;;;;;;2.83;1.90;;;25.70;47.70;;;;;;5130383;28;20209;-93
2022/06/16 06:25:56;;;;;;;2.73;1.60;;;25.90;47.40;;;;;;5132845;27;20173;-94
2022/06/16 06:28:23;;;;;;;1.67;1.30;;;26.10;47.30;;;;;;5127006;28;20188;-94
2022/06/16 06:30:49;;;;;;;2.57;1.47;;;26.20;47.00;;;;;;5126878;27;20474;-94
2022/06/16 06:33:15;;;;;;;2.43;1.50;;;26.40;46.90;;;;;;5131967;27;20195;-94
2022/06/16 06:35:40;;;;;;;2.80;1.53;;;26.50;46.70;;;;;;5139093;27;20205;-94
2022/06/16 06:38:08;;;;;;;1.67;1.50;;;26.60;46.60;;;;;;5135910;27;20170;-94
2022/06/16 06:40:36;;;;;;;2.17;1.50;;;26.70;46.50;;;;;;5136120;27;20173;-94
2022/06/16 06:43:02;;;;;;;2.57;1.43;;;26.80;46.50;;;;;;5134042;27;20250;-94
2022/06/16 06:45:28;;;;;;;2.43;1.30;;;26.90;46.40;;;;;;5135066;27;20185;-94
2022/06/16 06:47:57;;;;;;;1.60;1.50;;;27.00;46.30;;;;;;5137669;27;20181;-94
2022/06/16 06:50:27;;;;;;;1.60;1.30;;;27.00;46.20;;;;;;5142924;27;20186;-95
2022/06/16 06:52:53;;;;;;;1.33;1.23;;;27.10;46.10;;;;;;5145625;27;20187;-96
2022/06/16 06:55:21;;;;;;;2.50;1.40;;;27.20;46.10;;;;;;5145283;27;20173;-95
2022/06/16 06:57:49;;;;;;;1.73;1.40;;;27.20;46.00;;;;;;5145707;27;20157;-96
2022/06/16 07:00:16;;;;;;;2.30;1.40;;;27.30;46.00;;;;;;5145617;27;20153;-94
2022/06/16 07:02:42;;;;;;;2.70;1.38;;;27.40;45.90;;;;;;5143899;27;20215;-95
2022/06/16 07:05:09;;;;;;;4.40;2.05;;;27.40;45.80;;;;;;5143148;27;20230;-94
2022/06/16 07:07:36;;;;;;;2.17;1.50;;;27.50;45.40;;;;;;5142862;27;20162;-95
2022/06/16 07:10:06;;;;;;;1.88;1.50;;;27.60;45.70;;;;;;5140596;27;20162;-95
2022/06/16 07:12:34;;;;;;;2.10;1.15;;;27.60;45.60;;;;;;5142963;27;20161;-95
2022/06/16 07:15:00;;;;;;;3.20;1.75;;;27.70;45.60;;;;;;5140521;27;20165;-95
2022/06/16 07:17:25;;;;;;;2.65;1.40;;;27.70;45.60;;;;;;5140400;27;20179;-95
2022/06/16 07:19:53;;;;;;;1.92;1.50;;;27.70;45.60;;;;;;5141062;27;20212;-95
2022/06/16 07:22:19;;;;;;;1.65;1.40;;;27.80;45.40;;;;;;5142796;27;20213;-96
2022/06/16 07:24:48;;;;;;;1.60;1.20;;;27.80;45.50;;;;;;5144649;27;20173;-96
2022/06/16 07:27:13;;;;;;;1.63;1.10;;;27.80;45.50;;;;;;5144526;27;20182;-96
2022/06/16 07:33:02;;;;;;;2.42;1.50;;;27.90;45.50;;;;;;5162468;27;20188;-95
2022/06/16 07:35:28;;;;;;;2.53;1.65;;;28.00;45.40;;;;;;5143997;27;20181;-95
2022/06/16 07:37:54;;;;;;;3.75;1.73;;;28.00;45.20;;;;;;5143027;27;20184;-95
2022/06/16 07:43:05;;;;;;;3.03;1.42;;;28.10;45.30;;;;;;5160203;27;20277;-96
2022/06/16 07:45:31;;;;;;;2.92;1.70;;;28.00;45.30;;;;;;5145097;27;20173;-94
2022/06/16 07:48:00;;;;;;;2.17;1.40;;;28.10;45.40;;;;;;5144395;27;20157;-94
2022/06/16 07:50:33;;;;;;;2.08;1.48;;;28.10;45.40;;;;;;5143896;27;20161;-96
2022/06/16 07:52:59;;;;;;;1.95;1.40;;;28.10;45.40;;;;;;5142102;27;20170;-95
2022/06/16 07:55:25;;;;;;;2.03;1.10;;;28.20;45.40;;;;;;5144007;27;20229;-96
2022/06/16 07:57:51;;;;;;;1.40;1.20;;;28.20;45.40;;;;;;5142961;27;20154;-95
2022/06/16 08:00:32;;;;;;;1.30;1.20;;;28.20;45.50;;;;;;5137046;27;20189;-95
2022/06/16 08:02:58;;;;;;;2.25;1.40;;;28.20;45.50;;;;;;5137230;27;20201;-96
2022/06/16 08:05:24;;;;;;;1.73;1.20;;;28.20;45.50;;;;;;5134441;27;20195;-95
2022/06/16 08:07:50;;;;;;;1.77;1.48;;;28.20;45.50;;;;;;5136265;27;20173;-96
2022/06/16 08:10:20;;;;;;;4.50;2.25;;;28.30;45.50;;;;;;5137286;27;20186;-94
2022/06/16 08:12:45;;;;;;;3.75;2.00;;;28.30;44.90;;;;;;5136875;27;20165;-94
2022/06/16 08:15:12;;;;;;;2.03;1.48;;;28.30;45.30;;;;;;5138937;27;20174;-93
2022/06/16 08:17:41;;;;;;;2.22;1.40;;;28.30;45.40;;;;;;5135391;27;20559;-93
2022/06/16 08:20:13;;;;;;;2.45;1.50;;;28.40;45.40;;;;;;5138233;27;20166;-94
2022/06/16 08:22:39;;;;;;;5.22;2.40;;;28.40;45.50;;;;;;5135336;27;20205;-94
2022/06/16 08:25:10;;;;;;;2.75;1.42;;;28.50;44.80;;;;;;5134905;27;20174;-94
2022/06/16 08:27:37;;;;;;;2.45;1.30;;;28.50;45.10;;;;;;5136965;27;20170;-94
2022/06/16 08:30:13;;;;;;;3.92;1.50;;;28.50;45.20;;;;;;5129191;27;20186;-94
2022/06/16 08:32:40;;;;;;;2.25;1.45;;;28.50;45.30;;;;;;5121375;27;20173;-92
2022/06/16 08:35:06;;;;;;;2.72;1.60;;;28.50;45.40;;;;;;5126291;27;20609;-93
2022/06/16 08:37:35;;;;;;;2.03;1.50;;;28.60;45.50;;;;;;5123734;27;20166;-93
2022/06/16 08:40:04;;;;;;;5.00;1.52;;;28.60;45.50;;;;;;5127327;27;20177;-93
2022/06/16 08:42:37;;;;;;;6.53;1.50;;;28.60;46.00;;;;;;5125954;27;20248;-93
2022/06/16 08:45:31;;;;;;;2.58;1.48;;;28.60;45.60;;;;;;5120951;27;20208;-93
2022/06/16 08:48:32;;;;;;;1.40;1.30;;;28.60;45.60;;;;;;5122403;27;20177;-94
2022/06/16 08:51:15;;;;;;;3.22;1.48;;;28.70;45.60;;;;;;5125984;27;20165;-94
2022/06/16 08:53:49;;;;;;;3.85;1.70;;;28.70;45.70;;;;;;5125940;28;20169;-93
2022/06/16 08:56:24;;;;;;;1.65;1.30;;;28.70;45.70;;;;;;5123955;27;20577;-93
2022/06/16 08:59:11;;;;;;;2.90;1.30;;;28.70;45.60;;;;;;5128750;27;20179;-93
2022/06/16 09:01:52;;;;;;;2.75;1.45;;;28.70;45.70;;;;;;5131538;27;20386;-93
2022/06/16 09:04:39;;;;;;;2.97;1.60;;;28.70;45.60;;;;;;5132926;27;20272;-94
2022/06/16 09:07:32;;;;;;;3.17;1.50;;;28.70;45.60;;;;;;5129536;27;20470;-93
2022/06/16 09:10:45;;;;;;;2.33;1.60;;;28.70;45.50;;;;;;5125086;27;20177;-93
2022/06/16 09:13:10;;;;;;;3.58;1.40;;;28.80;45.50;;;;;;5025145;28;20173;-94
2022/06/16 09:15:50;;;;;;;2.20;1.40;;;28.80;45.10;;;;;;5114700;27;20193;-93
2022/06/16 09:18:42;;;;;;;2.45;1.42;;;28.80;45.30;;;;;;5124643;27;20261;-93
2022/06/16 09:21:20;;;;;;;3.55;1.50;;;28.80;45.40;;;;;;5119384;27;20189;-93
2022/06/16 09:24:04;;;;;;;2.63;1.50;;;28.80;45.30;;;;;;5122039;27;20185;-93
2022/06/16 09:26:40;;;;;;;3.85;1.48;;;28.80;45.40;;;;;;5125376;27;20150;-93
2022/06/16 09:29:08;;;;;;;2.17;1.40;;;28.80;45.20;;;;;;5129719;27;20169;-93
2022/06/16 09:31:40;;;;;;;1.83;1.27;;;28.90;45.20;;;;;;5128545;27;20272;-94
2022/06/16 09:34:31;;;;;;;1.88;1.42;;;28.90;45.30;;;;;;5125921;27;20189;-93
2022/06/16 09:37:36;;;;;;;2.10;1.50;;;28.80;45.30;;;;;;5139087;27;20181;-93
2022/06/16 09:40:08;;;;;;;2.55;1.45;;;28.80;45.30;;;;;;5142010;27;20165;-92
2022/06/16 09:42:40;;;;;;;1.48;1.20;;;28.80;45.40;;;;;;5141696;27;20272;-95
2022/06/16 09:45:18;;;;;;;3.15;1.40;;;28.80;45.40;;;;;;5141916;27;20181;-94
2022/06/16 09:47:58;;;;;;;2.00;1.30;;;28.70;45.50;;;;;;5141806;27;20233;-94
2022/06/16 09:50:43;;;;;;;1.77;1.50;;;28.80;45.40;;;;;;5142160;27;20180;-93
2022/06/16 09:56:52;;;;;;;2.47;1.40;;;28.80;45.40;;;;;;5160038;27;20164;-95
2022/06/16 09:59:28;;;;;;;1.52;1.00;;;28.80;45.50;;;;;;5141895;28;20157;-93
2022/06/16 10:02:20;;;;;;;2.47;1.40;;;28.70;45.30;;;;;;5141966;28;20141;-94
2022/06/16 10:12:10;;;;;;;2.20;1.25;;;28.70;45.60;;;;;;5100699;28;20186;-93
2022/06/16 10:15:08;;;;;;;1.90;1.38;;;28.70;45.70;;;;;;5060940;28;20185;-93
2022/06/16 10:17:39;;;;;;;1.80;1.15;;;28.60;44.40;;;;;;5070291;28;20198;-94
2022/06/16 10:20:05;;;;;;;2.97;1.05;;;28.50;45.60;;;;;;5084001;28;20176;-93
2022/06/16 10:22:35;;;;;;;3.55;1.33;;;28.40;45.50;;;;;;5083587;28;20195;-93
2022/06/16 10:25:31;;;;;;;3.95;1.20;;;28.40;43.90;;;;;;5084169;28;20187;-94
2022/06/16 10:28:18;;;;;;;1.83;1.30;;;28.30;45.50;;;;;;5082964;28;20171;-94
2022/06/16 10:30:44;;;;;;;2.25;1.10;;;28.30;45.50;;;;;;5084247;28;20265;-94
2022/06/16 10:33:34;;;;;;;2.35;1.38;;;28.30;45.60;;;;;;5084507;28;20179;-94
2022/06/16 10:36:03;;;;;;;3.53;1.20;;;28.30;42.10;;;;;;5121977;27;20198;-93
2022/06/16 10:38:40;;;;;;;2.17;1.13;;;28.20;43.70;;;;;;5145967;27;20165;-93
2022/06/16 10:41:25;;;;;;;2.17;1.13;;;28.20;44.80;;;;;;5145983;27;20183;-93
2022/06/16 10:43:56;;;;;;;2.28;1.40;;;28.20;44.30;;;;;;5143414;27;20233;-95
2022/06/16 10:46:30;;;;;;;2.72;1.33;;;28.20;44.70;;;;;;5141890;27;20193;-95
2022/06/16 10:48:59;;;;;;;1.40;1.30;;;28.20;43.10;;;;;;5138446;27;20173;-94
2022/06/16 10:51:28;;;;;;;2.15;1.25;;;28.10;45.00;;;;;;5138617;27;20180;-94
2022/06/16 10:54:13;;;;;;;1.90;1.00;;;28.10;45.10;;;;;;5141323;27;20189;-95
2022/06/16 10:56:40;;;;;;;1.33;1.00;;;28.10;46.10;;;;;;5137146;27;20227;-93
2022/06/16 10:59:19;;;;;;;1.70;1.00;;;28.00;45.90;;;;;;5135903;27;20182;-94
2022/06/16 11:01:58;;;;;;;2.50;1.27;;;28.00;46.00;;;;;;5141847;27;20181;-94
2022/06/16 11:04:32;;;;;;;1.10;1.00;;;27.90;46.00;;;;;;5141752;27;20169;-94
2022/06/16 11:06:59;;;;;;;2.50;1.10;;;27.90;46.10;;;;;;5139434;27;20178;-94
2022/06/16 11:09:31;;;;;;;1.63;1.20;;;27.90;45.80;;;;;;5142825;27;20182;-94
2022/06/16 11:12:06;;;;;;;2.57;0.90;;;27.90;46.20;;;;;;5142771;27;20154;-94
2022/06/16 11:14:55;;;;;;;1.60;1.20;;;27.90;46.10;;;;;;5144144;27;20193;-95
2022/06/16 11:17:42;;;;;;;2.13;1.03;;;27.80;46.30;;;;;;5116384;22;20234;-9
2022/06/16 11:20:19;;;;;;;2.03;1.10;;;27.70;46.40;;;;;;5118786;27;20238;-8
2022/06/16 11:22:49;;;;;;;2.30;1.43;;;27.70;46.30;;;;;;5127658;27;20282;-9
2022/06/16 11:25:31;;;;;;;1.97;1.20;;;27.70;46.10;;;;;;5120059;27;20272;-10
2022/06/16 11:27:59;;;;;;;1.77;1.20;;;27.70;45.80;;;;;;5134838;27;20186;-7
2022/06/16 11:30:33;;;;;;;1.50;1.30;;;27.70;46.30;;;;;;5133866;27;20193;-8
2022/06/16 11:33:00;;;;;;;2.00;1.10;;;27.70;45.90;;;;;;5133998;27;20171;-9
2022/06/16 11:35:53;;;;;;;2.17;1.30;;;27.70;46.10;;;;;;5133188;27;20182;-8
2022/06/16 11:38:50;;;;;;;4.20;1.30;;;27.70;46.20;;;;;;5114590;27;20475;-7
2022/06/16 11:41:16;;;;;;;2.50;1.43;;;27.70;46.20;;;;;;5099059;27;20185;-9
2022/06/16 11:43:50;;;;;;;1.17;1.07;;;27.70;45.90;;;;;;5114480;27;20436;-8
2022/06/16 11:46:48;;;;;;;1.70;1.20;;;27.70;46.10;;;;;;5132857;27;20212;-7
2022/06/16 11:49:49;;;;;;;1.23;1.07;;;27.70;46.40;;;;;;5115486;27;20189;-9
2022/06/16 11:52:33;;;;;;;3.33;1.70;;;27.70;45.80;;;;;;5128256;27;20197;-9
2022/06/16 11:55:26;;;;;;;1.80;1.43;;;27.60;43.70;;;;;;5138868;27;20205;-9
2022/06/16 11:58:04;;;;;;;1.70;1.40;;;27.60;44.00;;;;;;5136519;27;20222;-8
2022/06/16 12:00:36;;;;;;;1.23;1.07;;;27.60;45.40;;;;;;5131945;27;20173;-8
2022/06/16 12:03:46;;;;;;;2.30;1.20;;;27.60;46.10;;;;;;5115386;27;20471;-7
2022/06/16 12:06:41;;;;;;;2.00;1.23;;;27.60;46.40;;;;;;5093552;27;20566;-8
2022/06/16 12:09:16;;;;;;;1.77;1.20;;;27.60;45.30;;;;;;5132175;27;20583;-9
2022/06/16 12:11:57;;;;;;;1.40;1.10;;;27.60;46.50;;;;;;5133764;27;20565;-8
2022/06/16 12:14:57;;;;;;;4.43;1.80;;;27.50;46.80;;;;;;5133483;27;20396;-8
2022/06/16 12:17:38;;;;;;;1.53;1.30;;;27.50;45.10;;;;;;5131853;27;20209;-9
2022/06/16 12:20:27;;;;;;;1.43;1.00;;;27.50;45.40;;;;;;5133282;27;20189;-8
2022/06/16 12:22:57;;;;;;;1.97;1.13;;;27.50;46.30;;;;;;5131681;27;20209;-7
2022/06/16 12:25:33;;;;;;;2.17;1.10;;;27.40;46.20;;;;;;5130875;27;20822;-8
2022/06/16 12:28:10;;;;;;;1.20;1.10;;;27.40;47.00;;;;;;5130983;27;20259;-8
2022/06/16 12:30:40;;;;;;;1.97;1.20;;;27.40;47.00;;;;;;5130942;27;20573;-11
2022/06/16 12:33:06;;;;;;;4.60;1.20;;;27.40;46.80;;;;;;5131350;27;20258;-10
2022/06/16 12:36:00;;;;;;;2.57;1.20;;;27.40;47.10;;;;;;5130837;27;20499;-8
2022/06/16 12:38:31;;;;;;;5.43;1.63;;;27.40;46.70;;;;;;5113055;27;20215;-9
2022/06/16 12:41:40;;;;;;;1.77;1.10;;;27.40;45.60;;;;;;5131407;27;20234;-10
2022/06/16 12:44:23;;;;;;;1.97;1.10;;;27.30;46.90;;;;;;5081432;27;20212;-9
2022/06/16 12:47:17;;;;;;;2.73;1.53;;;27.30;47.00;;;;;;5114387;27;20366;-9
2022/06/16 12:50:01;;;;;;;2.80;1.30;;;27.30;45.40;;;;;;5110942;27;20296;-9
2022/06/16 12:52:44;;;;;;;3.83;1.60;;;27.30;46.50;;;;;;5132188;27;20158;-10
2022/06/16 12:55:29;;;;;;;3.10;1.50;;;27.30;45.40;;;;;;5113072;27;20595;-9
2022/06/16 12:58:05;;;;;;;2.03;1.17;;;27.20;45.60;;;;;;5131759;27;20361;-9
2022/06/16 13:00:36;;;;;;;2.10;1.67;;;27.20;46.60;;;;;;5132345;27;20157;-9
2022/06/16 13:03:38;;;;;;;2.73;1.33;;;27.20;46.40;;;;;;5130962;27;20205;-9
2022/06/16 13:06:05;;;;;;;2.03;1.50;;;27.20;45.90;;;;;;5080754;27;20181;-8
2022/06/16 13:08:34;;;;;;;;;;;27.20;46.90;;;;;;5131548;27;20261;-10
2022/06/16 13:11:02;;;;;;;;;;;27.20;46.70;;;;;;5113432;27;20161;-8
2022/06/16 13:13:30;;;;;;;;;;;27.20;46.40;;;;;;5131978;27;20248;-8
2022/06/16 13:15:58;;;;;;;;;;;27.20;47.00;;;;;;5131128;27;19968;-9
2022/06/16 13:18:59;;;;;;;;;;;27.20;46.10;;;;;;5128837;27;19903;-9
2022/06/16 13:21:30;;;;;;;;;;;27.20;46.80;;;;;;5027575;28;20290;-8
2022/06/16 13:24:11;;;;;;;;;;;27.20;46.30;;;;;;5113964;27;19946;-9
2022/06/16 13:26:42;;;;;;;;;;;27.20;45.70;;;;;;5112330;27;19914;-10
2022/06/16 13:29:18;;;;;;;;;;;27.10;45.00;;;;;;5130714;27;19903;-9
2022/06/16 13:31:46;;;;;;;;;;;27.10;46.30;;;;;;5131009;27;20256;-8
2022/06/16 13:34:14;;;;;;;;;;;27.10;46.80;;;;;;5113451;27;19914;-9
2022/06/16 13:36:51;;;;;;;;;;;27.10;46.80;;;;;;5131552;27;19910;-9
2022/06/16 13:39:40;;;;;;;;;;;27.10;46.70;;;;;;5131130;27;19915;-9
2022/06/16 13:42:13;;;;;;;;;;;27.10;46.90;;;;;;5065853;27;20150;-9
2022/06/16 13:44:59;;;;;;;;;;;27.10;46.70;;;;;;5131177;27;19907;-10
2022/06/16 13:47:24;;;;;;;;;;;27.10;46.60;;;;;;5132003;27;20323;-9
2022/06/16 13:49:50;;;;;;;;;;;27.10;46.00;;;;;;5131593;27;19903;-9
2022/06/16 13:52:17;;;;;;;;;;;27.10;46.50;;;;;;5130889;27;19899;-11
2022/06/16 13:54:44;;;;;;;;;;;27.10;46.60;;;;;;5132660;27;20001;-9
2022/06/16 13:57:35;;;;;;;;;;;27.10;46.60;;;;;;5130983;27;19953;-9
2022/06/16 14:00:06;;;;;;;;;;;27.10;46.70;;;;;;5109141;28;19930;-10
2022/06/16 14:02:51;;;;;;;;;;;27.10;46.80;;;;;;5095971;28;19919;-9
2022/06/16 14:05:22;;;;;;;;;;;27.10;45.70;;;;;;5131123;28;20175;-9
2022/06/16 14:07:48;;;;;;;;;;;27.10;46.80;;;;;;5131171;28;19972;-10
2022/06/16 14:10:20;;;;;;;;;;;27.10;46.80;;;;;;5130759;28;19984;-9
2022/06/16 14:12:58;;;;;;;;;;;27.10;46.80;;;;;;5129618;28;19904;-8
2022/06/16 14:15:47;;;;;;;;;;;27.10;46.80;;;;;;5111287;28;19904;-9